Terminal Aerodrome Forecast
Issued by NWS

Home | Current Version | Previous Version | Text Only | Print | Product List | Glossary On
Versions: 1 2 3 4 5 6 7 8 9 10 11 12 13 14 15 16 17 18 19
000
FTUS46 KLOX 220543
TAFVNY
TAF
KVNY 220543Z 2206/2306 13007KT P6SM SCT025 BKN045
     FM221200 13007KT P6SM VCSH BKN025 BKN040
     FM221800 14010KT P6SM VCSH SCT025 BKN040
     FM222200 14012KT P6SM BKN050
     FM230300 14007KT P6SM BKN025=

USA.gov is the U.S. government's official web portal to all federal, state and local government web resources and services.